sensor_id;sensor_type;location;lat;lon;timestamp;P1;durP1;ratioP1;P2;durP2;ratioP2
16480;SDS011;44634;54.110;12.138;2022-09-09T00:00:05;24.47;;;21.07;;
16480;SDS011;44634;54.110;12.138;2022-09-09T00:02:38;27.40;;;21.77;;
16480;SDS011;44634;54.110;12.138;2022-09-09T00:05:13;28.33;;;22.63;;
16480;SDS011;44634;54.110;12.138;2022-09-09T00:07:50;29.90;;;21.77;;
16480;SDS011;44634;54.110;12.138;2022-09-09T00:10:20;28.03;;;24.13;;
16480;SDS011;44634;54.110;12.138;2022-09-09T00:12:56;26.40;;;22.47;;
16480;SDS011;44634;54.110;12.138;2022-09-09T00:15:31;27.33;;;23.37;;
16480;SDS011;44634;54.110;12.138;2022-09-09T00:18:07;28.83;;;24.97;;
16480;SDS011;44634;54.110;12.138;2022-09-09T00:20:45;26.93;;;22.93;;
16480;SDS011;44634;54.110;12.138;2022-09-09T00:23:20;26.27;;;23.47;;
16480;SDS011;44634;54.110;12.138;2022-09-09T00:25:54;27.70;;;23.83;;
16480;SDS011;44634;54.110;12.138;2022-09-09T00:28:29;29.50;;;25.80;;
16480;SDS011;44634;54.110;12.138;2022-09-09T00:31:04;29.80;;;24.37;;
16480;SDS011;44634;54.110;12.138;2022-09-09T00:33:39;27.23;;;24.20;;
16480;SDS011;44634;54.110;12.138;2022-09-09T00:36:09;30.83;;;24.23;;
16480;SDS011;44634;54.110;12.138;2022-09-09T00:38:42;28.60;;;24.27;;
16480;SDS011;44634;54.110;12.138;2022-09-09T00:41:14;30.83;;;26.13;;
16480;SDS011;44634;54.110;12.138;2022-09-09T00:43:49;28.90;;;24.07;;
16480;SDS011;44634;54.110;12.138;2022-09-09T00:46:32;27.57;;;23.63;;
16480;SDS011;44634;54.110;12.138;2022-09-09T00:49:14;27.20;;;23.93;;
16480;SDS011;44634;54.110;12.138;2022-09-09T00:51:51;28.87;;;24.10;;
16480;SDS011;44634;54.110;12.138;2022-09-09T00:54:31;26.40;;;23.43;;
16480;SDS011;44634;54.110;12.138;2022-09-09T00:57:10;24.50;;;21.20;;
16480;SDS011;44634;54.110;12.138;2022-09-09T00:59:46;26.53;;;22.90;;
16480;SDS011;44634;54.110;12.138;2022-09-09T01:02:21;24.83;;;22.23;;
16480;SDS011;44634;54.110;12.138;2022-09-09T01:04:56;25.97;;;21.53;;
16480;SDS011;44634;54.110;12.138;2022-09-09T01:07:29;20.07;;;17.83;;
16480;SDS011;44634;54.110;12.138;2022-09-09T01:09:58;22.43;;;19.13;;
16480;SDS011;44634;54.110;12.138;2022-09-09T01:12:30;23.43;;;19.40;;
16480;SDS011;44634;54.110;12.138;2022-09-09T01:15:08;21.70;;;18.77;;
16480;SDS011;44634;54.110;12.138;2022-09-09T01:17:44;21.80;;;19.17;;
16480;SDS011;44634;54.110;12.138;2022-09-09T01:20:20;23.40;;;19.37;;
16480;SDS011;44634;54.110;12.138;2022-09-09T01:22:56;23.53;;;19.33;;
16480;SDS011;44634;54.110;12.138;2022-09-09T01:26:04;23.40;;;19.17;;
16480;SDS011;44634;54.110;12.138;2022-09-09T01:28:51;22.53;;;19.80;;
16480;SDS011;44634;54.110;12.138;2022-09-09T01:31:20;22.67;;;19.70;;
16480;SDS011;44634;54.110;12.138;2022-09-09T01:33:52;25.73;;;20.63;;
16480;SDS011;44634;54.110;12.138;2022-09-09T01:36:22;22.00;;;19.60;;
16480;SDS011;44634;54.110;12.138;2022-09-09T01:38:55;20.73;;;18.33;;
16480;SDS011;44634;54.110;12.138;2022-09-09T01:41:24;20.80;;;18.60;;
16480;SDS011;44634;54.110;12.138;2022-09-09T01:43:52;19.60;;;17.50;;
16480;SDS011;44634;54.110;12.138;2022-09-09T01:46:22;17.03;;;15.33;;
16480;SDS011;44634;54.110;12.138;2022-09-09T01:48:50;15.40;;;13.90;;
16480;SDS011;44634;54.110;12.138;2022-09-09T01:51:19;16.33;;;13.90;;
16480;SDS011;44634;54.110;12.138;2022-09-09T01:53:47;15.67;;;14.07;;
16480;SDS011;44634;54.110;12.138;2022-09-09T01:56:18;15.80;;;14.27;;
16480;SDS011;44634;54.110;12.138;2022-09-09T01:59:00;16.37;;;14.87;;
16480;SDS011;44634;54.110;12.138;2022-09-09T02:01:39;16.03;;;14.53;;
16480;SDS011;44634;54.110;12.138;2022-09-09T02:04:20;16.90;;;15.20;;
16480;SDS011;44634;54.110;12.138;2022-09-09T02:06:58;18.03;;;16.20;;
16480;SDS011;44634;54.110;12.138;2022-09-09T02:09:28;17.90;;;15.57;;
16480;SDS011;44634;54.110;12.138;2022-09-09T02:11:59;16.20;;;14.67;;
16480;SDS011;44634;54.110;12.138;2022-09-09T02:14:35;16.50;;;14.90;;
16480;SDS011;44634;54.110;12.138;2022-09-09T02:17:08;14.90;;;13.40;;
16480;SDS011;44634;54.110;12.138;2022-09-09T02:19:39;15.07;;;13.67;;
16480;SDS011;44634;54.110;12.138;2022-09-09T02:22:12;16.23;;;14.63;;
16480;SDS011;44634;54.110;12.138;2022-09-09T02:24:40;16.27;;;14.67;;
16480;SDS011;44634;54.110;12.138;2022-09-09T02:27:08;15.83;;;14.17;;
16480;SDS011;44634;54.110;12.138;2022-09-09T02:29:40;16.73;;;14.93;;
16480;SDS011;44634;54.110;12.138;2022-09-09T02:32:12;16.30;;;14.70;;
16480;SDS011;44634;54.110;12.138;2022-09-09T02:34:43;17.60;;;15.40;;
16480;SDS011;44634;54.110;12.138;2022-09-09T02:37:15;17.23;;;15.53;;
16480;SDS011;44634;54.110;12.138;2022-09-09T02:39:45;17.43;;;15.63;;
16480;SDS011;44634;54.110;12.138;2022-09-09T02:42:13;16.87;;;15.17;;
16480;SDS011;44634;54.110;12.138;2022-09-09T02:44:43;16.80;;;15.10;;
16480;SDS011;44634;54.110;12.138;2022-09-09T02:47:18;16.53;;;14.90;;
16480;SDS011;44634;54.110;12.138;2022-09-09T02:49:55;14.43;;;12.93;;
16480;SDS011;44634;54.110;12.138;2022-09-09T02:52:32;16.17;;;14.67;;
16480;SDS011;44634;54.110;12.138;2022-09-09T02:55:07;16.93;;;15.20;;
16480;SDS011;44634;54.110;12.138;2022-09-09T02:57:39;17.17;;;15.43;;
16480;SDS011;44634;54.110;12.138;2022-09-09T03:00:11;20.07;;;15.70;;
16480;SDS011;44634;54.110;12.138;2022-09-09T03:02:39;16.77;;;14.97;;
16480;SDS011;44634;54.110;12.138;2022-09-09T03:05:08;18.10;;;15.63;;
16480;SDS011;44634;54.110;12.138;2022-09-09T03:07:36;18.37;;;16.30;;
16480;SDS011;44634;54.110;12.138;2022-09-09T03:10:05;17.60;;;15.90;;
16480;SDS011;44634;54.110;12.138;2022-09-09T03:12:34;16.90;;;15.17;;
16480;SDS011;44634;54.110;12.138;2022-09-09T03:15:02;17.73;;;16.03;;
16480;SDS011;44634;54.110;12.138;2022-09-09T03:17:31;18.27;;;15.93;;
16480;SDS011;44634;54.110;12.138;2022-09-09T03:19:59;18.80;;;16.73;;
16480;SDS011;44634;54.110;12.138;2022-09-09T03:22:27;19.20;;;17.20;;
16480;SDS011;44634;54.110;12.138;2022-09-09T03:24:55;18.90;;;16.90;;
16480;SDS011;44634;54.110;12.138;2022-09-09T03:27:23;19.13;;;17.20;;
16480;SDS011;44634;54.110;12.138;2022-09-09T03:29:51;20.73;;;18.37;;
16480;SDS011;44634;54.110;12.138;2022-09-09T03:32:19;21.67;;;19.23;;
16480;SDS011;44634;54.110;12.138;2022-09-09T03:34:49;21.87;;;19.57;;
16480;SDS011;44634;54.110;12.138;2022-09-09T03:37:18;21.37;;;18.17;;
16480;SDS011;44634;54.110;12.138;2022-09-09T03:39:46;22.93;;;19.70;;
16480;SDS011;44634;54.110;12.138;2022-09-09T03:42:14;24.03;;;21.53;;
16480;SDS011;44634;54.110;12.138;2022-09-09T03:44:44;23.53;;;19.80;;
16480;SDS011;44634;54.110;12.138;2022-09-09T03:47:16;21.33;;;19.10;;
16480;SDS011;44634;54.110;12.138;2022-09-09T03:49:45;22.07;;;18.47;;
16480;SDS011;44634;54.110;12.138;2022-09-09T03:52:14;21.37;;;18.83;;
16480;SDS011;44634;54.110;12.138;2022-09-09T03:54:48;22.57;;;19.43;;
16480;SDS011;44634;54.110;12.138;2022-09-09T03:57:16;23.57;;;19.97;;
16480;SDS011;44634;54.110;12.138;2022-09-09T03:59:44;20.73;;;18.50;;
16480;SDS011;44634;54.110;12.138;2022-09-09T04:02:11;22.77;;;19.30;;
16480;SDS011;44634;54.110;12.138;2022-09-09T04:04:39;23.80;;;20.03;;
16480;SDS011;44634;54.110;12.138;2022-09-09T04:07:07;23.97;;;19.33;;
16480;SDS011;44634;54.110;12.138;2022-09-09T04:09:36;24.70;;;19.23;;
16480;SDS011;44634;54.110;12.138;2022-09-09T04:12:04;22.80;;;19.73;;
16480;SDS011;44634;54.110;12.138;2022-09-09T04:14:32;22.10;;;19.40;;
16480;SDS011;44634;54.110;12.138;2022-09-09T04:17:00;23.97;;;19.80;;
16480;SDS011;44634;54.110;12.138;2022-09-09T04:19:32;25.90;;;20.77;;
16480;SDS011;44634;54.110;12.138;2022-09-09T04:22:00;25.07;;;20.90;;
16480;SDS011;44634;54.110;12.138;2022-09-09T04:24:27;24.03;;;19.90;;
16480;SDS011;44634;54.110;12.138;2022-09-09T04:26:56;26.80;;;21.77;;
16480;SDS011;44634;54.110;12.138;2022-09-09T04:29:24;24.90;;;21.47;;
16480;SDS011;44634;54.110;12.138;2022-09-09T04:31:52;26.90;;;20.50;;
16480;SDS011;44634;54.110;12.138;2022-09-09T04:34:20;26.07;;;22.10;;
16480;SDS011;44634;54.110;12.138;2022-09-09T04:36:48;26.80;;;21.73;;
16480;SDS011;44634;54.110;12.138;2022-09-09T04:39:15;30.37;;;24.40;;
16480;SDS011;44634;54.110;12.138;2022-09-09T04:41:43;28.00;;;21.17;;
16480;SDS011;44634;54.110;12.138;2022-09-09T04:44:12;26.53;;;21.63;;
16480;SDS011;44634;54.110;12.138;2022-09-09T04:46:40;26.77;;;21.33;;
16480;SDS011;44634;54.110;12.138;2022-09-09T04:49:11;27.17;;;21.67;;
16480;SDS011;44634;54.110;12.138;2022-09-09T04:51:40;25.47;;;19.37;;
16480;SDS011;44634;54.110;12.138;2022-09-09T04:54:09;25.27;;;19.83;;
16480;SDS011;44634;54.110;12.138;2022-09-09T04:56:37;27.27;;;20.77;;
16480;SDS011;44634;54.110;12.138;2022-09-09T04:59:07;23.87;;;20.30;;
16480;SDS011;44634;54.110;12.138;2022-09-09T05:01:37;27.53;;;20.87;;
16480;SDS011;44634;54.110;12.138;2022-09-09T05:04:05;27.73;;;21.07;;
16480;SDS011;44634;54.110;12.138;2022-09-09T05:06:32;28.20;;;21.10;;
16480;SDS011;44634;54.110;12.138;2022-09-09T05:09:02;26.83;;;20.93;;
16480;SDS011;44634;54.110;12.138;2022-09-09T05:11:30;29.50;;;22.00;;
16480;SDS011;44634;54.110;12.138;2022-09-09T05:14:03;30.17;;;21.23;;
16480;SDS011;44634;54.110;12.138;2022-09-09T05:16:31;28.93;;;19.47;;
16480;SDS011;44634;54.110;12.138;2022-09-09T05:19:01;29.53;;;21.00;;
16480;SDS011;44634;54.110;12.138;2022-09-09T05:21:29;29.70;;;20.37;;
16480;SDS011;44634;54.110;12.138;2022-09-09T05:23:58;34.93;;;22.37;;
16480;SDS011;44634;54.110;12.138;2022-09-09T05:26:27;35.07;;;23.70;;
16480;SDS011;44634;54.110;12.138;2022-09-09T05:28:55;39.83;;;24.87;;
16480;SDS011;44634;54.110;12.138;2022-09-09T05:31:25;35.17;;;23.63;;
16480;SDS011;44634;54.110;12.138;2022-09-09T05:33:54;38.63;;;26.23;;
16480;SDS011;44634;54.110;12.138;2022-09-09T05:36:23;37.03;;;26.67;;
16480;SDS011;44634;54.110;12.138;2022-09-09T05:38:51;41.67;;;28.47;;
16480;SDS011;44634;54.110;12.138;2022-09-09T05:41:20;39.37;;;27.53;;
16480;SDS011;44634;54.110;12.138;2022-09-09T05:43:49;38.47;;;28.50;;
16480;SDS011;44634;54.110;12.138;2022-09-09T05:46:17;41.13;;;29.87;;
16480;SDS011;44634;54.110;12.138;2022-09-09T05:48:47;43.90;;;30.27;;
16480;SDS011;44634;54.110;12.138;2022-09-09T05:51:17;46.33;;;29.53;;
16480;SDS011;44634;54.110;12.138;2022-09-09T05:53:49;41.00;;;29.83;;
16480;SDS011;44634;54.110;12.138;2022-09-09T05:56:18;39.57;;;29.43;;
16480;SDS011;44634;54.110;12.138;2022-09-09T05:58:48;44.73;;;31.30;;
16480;SDS011;44634;54.110;12.138;2022-09-09T06:01:17;43.43;;;30.50;;
16480;SDS011;44634;54.110;12.138;2022-09-09T06:03:46;41.27;;;29.83;;
16480;SDS011;44634;54.110;12.138;2022-09-09T06:06:15;41.03;;;30.00;;
16480;SDS011;44634;54.110;12.138;2022-09-09T06:08:44;42.93;;;30.60;;
16480;SDS011;44634;54.110;12.138;2022-09-09T06:11:14;42.63;;;30.17;;
16480;SDS011;44634;54.110;12.138;2022-09-09T06:13:43;39.87;;;29.73;;
16480;SDS011;44634;54.110;12.138;2022-09-09T06:16:13;39.33;;;28.27;;
16480;SDS011;44634;54.110;12.138;2022-09-09T06:18:42;34.63;;;27.30;;
16480;SDS011;44634;54.110;12.138;2022-09-09T06:21:11;36.90;;;27.27;;
16480;SDS011;44634;54.110;12.138;2022-09-09T06:23:43;35.13;;;26.63;;
16480;SDS011;44634;54.110;12.138;2022-09-09T06:26:12;36.73;;;27.13;;
16480;SDS011;44634;54.110;12.138;2022-09-09T06:28:43;33.50;;;26.50;;
16480;SDS011;44634;54.110;12.138;2022-09-09T06:31:13;31.87;;;24.67;;
16480;SDS011;44634;54.110;12.138;2022-09-09T06:33:43;30.17;;;23.50;;
16480;SDS011;44634;54.110;12.138;2022-09-09T06:36:11;28.70;;;24.13;;
16480;SDS011;44634;54.110;12.138;2022-09-09T06:38:41;33.33;;;25.03;;
16480;SDS011;44634;54.110;12.138;2022-09-09T06:41:09;30.47;;;24.20;;
16480;SDS011;44634;54.110;12.138;2022-09-09T06:43:39;28.30;;;22.30;;
16480;SDS011;44634;54.110;12.138;2022-09-09T06:46:09;29.43;;;21.90;;
16480;SDS011;44634;54.110;12.138;2022-09-09T06:48:39;30.03;;;21.77;;
16480;SDS011;44634;54.110;12.138;2022-09-09T06:51:08;23.43;;;19.93;;
16480;SDS011;44634;54.110;12.138;2022-09-09T06:53:38;23.87;;;19.77;;
16480;SDS011;44634;54.110;12.138;2022-09-09T06:56:17;22.63;;;19.27;;
16480;SDS011;44634;54.110;12.138;2022-09-09T06:58:49;24.97;;;20.23;;
16480;SDS011;44634;54.110;12.138;2022-09-09T07:01:18;22.83;;;18.60;;
16480;SDS011;44634;54.110;12.138;2022-09-09T07:03:48;23.33;;;20.27;;
16480;SDS011;44634;54.110;12.138;2022-09-09T07:06:18;23.13;;;20.20;;
16480;SDS011;44634;54.110;12.138;2022-09-09T07:08:50;26.43;;;20.23;;
16480;SDS011;44634;54.110;12.138;2022-09-09T07:11:22;29.33;;;22.93;;
16480;SDS011;44634;54.110;12.138;2022-09-09T07:13:54;30.70;;;22.00;;
16480;SDS011;44634;54.110;12.138;2022-09-09T07:16:24;29.17;;;21.93;;
16480;SDS011;44634;54.110;12.138;2022-09-09T07:18:52;28.93;;;22.63;;
16480;SDS011;44634;54.110;12.138;2022-09-09T07:21:24;29.57;;;22.43;;
16480;SDS011;44634;54.110;12.138;2022-09-09T07:23:53;27.67;;;22.33;;
16480;SDS011;44634;54.110;12.138;2022-09-09T07:26:22;27.90;;;22.70;;
16480;SDS011;44634;54.110;12.138;2022-09-09T07:28:51;25.80;;;21.83;;
16480;SDS011;44634;54.110;12.138;2022-09-09T07:31:21;28.50;;;22.13;;
16480;SDS011;44634;54.110;12.138;2022-09-09T07:33:51;27.47;;;23.13;;
16480;SDS011;44634;54.110;12.138;2022-09-09T07:36:20;29.63;;;24.23;;
16480;SDS011;44634;54.110;12.138;2022-09-09T07:38:50;31.57;;;24.43;;
16480;SDS011;44634;54.110;12.138;2022-09-09T07:41:20;32.27;;;24.83;;
16480;SDS011;44634;54.110;12.138;2022-09-09T07:43:51;28.80;;;24.63;;
16480;SDS011;44634;54.110;12.138;2022-09-09T07:46:24;27.20;;;22.90;;
16480;SDS011;44634;54.110;12.138;2022-09-09T07:48:53;29.03;;;23.80;;
16480;SDS011;44634;54.110;12.138;2022-09-09T07:51:23;26.17;;;23.37;;
16480;SDS011;44634;54.110;12.138;2022-09-09T07:53:53;26.80;;;21.90;;
16480;SDS011;44634;54.110;12.138;2022-09-09T07:56:24;25.67;;;22.87;;
16480;SDS011;44634;54.110;12.138;2022-09-09T07:58:53;23.30;;;20.53;;
16480;SDS011;44634;54.110;12.138;2022-09-09T08:01:24;24.97;;;22.37;;
16480;SDS011;44634;54.110;12.138;2022-09-09T08:03:55;26.93;;;22.80;;
16480;SDS011;44634;54.110;12.138;2022-09-09T08:06:25;27.03;;;23.30;;
16480;SDS011;44634;54.110;12.138;2022-09-09T08:08:54;28.73;;;23.60;;
16480;SDS011;44634;54.110;12.138;2022-09-09T08:11:23;28.67;;;24.80;;
16480;SDS011;44634;54.110;12.138;2022-09-09T08:13:52;29.00;;;24.70;;
16480;SDS011;44634;54.110;12.138;2022-09-09T08:16:28;27.70;;;23.13;;
16480;SDS011;44634;54.110;12.138;2022-09-09T08:18:58;31.93;;;24.03;;
16480;SDS011;44634;54.110;12.138;2022-09-09T08:21:27;24.57;;;21.90;;
16480;SDS011;44634;54.110;12.138;2022-09-09T08:23:57;25.40;;;22.50;;
16480;SDS011;44634;54.110;12.138;2022-09-09T08:26:27;24.23;;;21.73;;
16480;SDS011;44634;54.110;12.138;2022-09-09T08:28:56;24.93;;;22.03;;
16480;SDS011;44634;54.110;12.138;2022-09-09T08:31:26;26.50;;;23.57;;
16480;SDS011;44634;54.110;12.138;2022-09-09T08:33:56;25.57;;;22.73;;
16480;SDS011;44634;54.110;12.138;2022-09-09T08:36:26;26.50;;;23.30;;
16480;SDS011;44634;54.110;12.138;2022-09-09T08:38:55;28.07;;;24.00;;
16480;SDS011;44634;54.110;12.138;2022-09-09T08:41:34;29.37;;;23.07;;
16480;SDS011;44634;54.110;12.138;2022-09-09T08:44:31;28.33;;;23.13;;
16480;SDS011;44634;54.110;12.138;2022-09-09T08:47:16;33.03;;;22.20;;
16480;SDS011;44634;54.110;12.138;2022-09-09T08:49:53;24.87;;;22.17;;
16480;SDS011;44634;54.110;12.138;2022-09-09T08:52:31;24.47;;;21.87;;
16480;SDS011;44634;54.110;12.138;2022-09-09T08:55:11;26.87;;;22.57;;
16480;SDS011;44634;54.110;12.138;2022-09-09T08:57:48;23.90;;;20.97;;
16480;SDS011;44634;54.110;12.138;2022-09-09T09:00:18;23.70;;;21.20;;
16480;SDS011;44634;54.110;12.138;2022-09-09T09:02:50;23.53;;;20.10;;
16480;SDS011;44634;54.110;12.138;2022-09-09T09:05:30;20.47;;;18.30;;
16480;SDS011;44634;54.110;12.138;2022-09-09T09:08:05;19.87;;;17.87;;
16480;SDS011;44634;54.110;12.138;2022-09-09T09:10:44;22.03;;;18.20;;
16480;SDS011;44634;54.110;12.138;2022-09-09T09:13:15;21.23;;;18.43;;
16480;SDS011;44634;54.110;12.138;2022-09-09T09:15:45;18.53;;;16.73;;
16480;SDS011;44634;54.110;12.138;2022-09-09T09:18:18;18.23;;;16.37;;
16480;SDS011;44634;54.110;12.138;2022-09-09T09:20:50;17.10;;;15.40;;
16480;SDS011;44634;54.110;12.138;2022-09-09T09:23:27;17.77;;;15.97;;
16480;SDS011;44634;54.110;12.138;2022-09-09T09:26:06;19.60;;;16.07;;
16480;SDS011;44634;54.110;12.138;2022-09-09T09:28:38;17.57;;;15.93;;
16480;SDS011;44634;54.110;12.138;2022-09-09T09:31:09;18.47;;;16.60;;
16480;SDS011;44634;54.110;12.138;2022-09-09T09:33:47;18.67;;;16.80;;
16480;SDS011;44634;54.110;12.138;2022-09-09T09:36:16;19.13;;;17.13;;
16480;SDS011;44634;54.110;12.138;2022-09-09T09:38:54;18.03;;;16.50;;
16480;SDS011;44634;54.110;12.138;2022-09-09T09:41:43;17.73;;;15.93;;
16480;SDS011;44634;54.110;12.138;2022-09-09T09:44:21;16.73;;;15.13;;
16480;SDS011;44634;54.110;12.138;2022-09-09T09:46:51;15.80;;;14.23;;
16480;SDS011;44634;54.110;12.138;2022-09-09T09:49:20;13.70;;;12.63;;
16480;SDS011;44634;54.110;12.138;2022-09-09T09:51:49;13.47;;;12.40;;
16480;SDS011;44634;54.110;12.138;2022-09-09T09:54:20;12.63;;;11.53;;
16480;SDS011;44634;54.110;12.138;2022-09-09T09:56:55;12.90;;;11.90;;
16480;SDS011;44634;54.110;12.138;2022-09-09T09:59:32;12.00;;;11.00;;
16480;SDS011;44634;54.110;12.138;2022-09-09T10:02:10;11.63;;;10.70;;
16480;SDS011;44634;54.110;12.138;2022-09-09T10:04:43;12.07;;;11.07;;
16480;SDS011;44634;54.110;12.138;2022-09-09T10:07:12;11.57;;;10.53;;
16480;SDS011;44634;54.110;12.138;2022-09-09T10:09:40;11.03;;;10.03;;
16480;SDS011;44634;54.110;12.138;2022-09-09T10:12:11;10.00;;;9.10;;
16480;SDS011;44634;54.110;12.138;2022-09-09T10:14:50;9.40;;;8.60;;
16480;SDS011;44634;54.110;12.138;2022-09-09T10:17:27;8.50;;;7.80;;
16480;SDS011;44634;54.110;12.138;2022-09-09T10:23:01;9.87;;;8.97;;
16480;SDS011;44634;54.110;12.138;2022-09-09T10:25:52;9.30;;;8.50;;
16480;SDS011;44634;54.110;12.138;2022-09-09T10:28:33;8.77;;;8.07;;
16480;SDS011;44634;54.110;12.138;2022-09-09T10:31:20;7.53;;;7.00;;
16480;SDS011;44634;54.110;12.138;2022-09-09T10:33:56;7.97;;;7.37;;
16480;SDS011;44634;54.110;12.138;2022-09-09T10:36:38;7.20;;;6.60;;
16480;SDS011;44634;54.110;12.138;2022-09-09T10:39:14;8.60;;;8.00;;
16480;SDS011;44634;54.110;12.138;2022-09-09T10:41:51;8.33;;;7.73;;
16480;SDS011;44634;54.110;12.138;2022-09-09T10:44:32;8.33;;;7.83;;
16480;SDS011;44634;54.110;12.138;2022-09-09T10:50:34;7.83;;;7.23;;
16480;SDS011;44634;54.110;12.138;2022-09-09T10:53:36;8.13;;;7.50;;
16480;SDS011;44634;54.110;12.138;2022-09-09T10:56:15;8.60;;;7.80;;
16480;SDS011;44634;54.110;12.138;2022-09-09T10:58:47;8.23;;;7.53;;
16480;SDS011;44634;54.110;12.138;2022-09-09T11:01:18;9.00;;;8.23;;
16480;SDS011;44634;54.110;12.138;2022-09-09T11:03:51;8.30;;;7.67;;
16480;SDS011;44634;54.110;12.138;2022-09-09T11:06:23;6.97;;;6.53;;
16480;SDS011;44634;54.110;12.138;2022-09-09T11:08:58;6.70;;;6.20;;
16480;SDS011;44634;54.110;12.138;2022-09-09T11:11:29;7.43;;;6.83;;
16480;SDS011;44634;54.110;12.138;2022-09-09T11:14:04;7.30;;;6.77;;
16480;SDS011;44634;54.110;12.138;2022-09-09T11:16:40;6.23;;;5.83;;
16480;SDS011;44634;54.110;12.138;2022-09-09T11:19:15;5.83;;;5.43;;
16480;SDS011;44634;54.110;12.138;2022-09-09T11:21:48;5.20;;;4.80;;
16480;SDS011;44634;54.110;12.138;2022-09-09T11:24:20;5.00;;;4.60;;
16480;SDS011;44634;54.110;12.138;2022-09-09T11:26:54;4.80;;;4.50;;
16480;SDS011;44634;54.110;12.138;2022-09-09T11:29:31;5.23;;;4.87;;
16480;SDS011;44634;54.110;12.138;2022-09-09T11:32:20;6.17;;;5.57;;
16480;SDS011;44634;54.110;12.138;2022-09-09T11:35:04;5.73;;;5.20;;
16480;SDS011;44634;54.110;12.138;2022-09-09T11:37:54;5.87;;;5.33;;
16480;SDS011;44634;54.110;12.138;2022-09-09T11:40:32;6.07;;;5.53;;
16480;SDS011;44634;54.110;12.138;2022-09-09T11:43:01;7.10;;;6.40;;
16480;SDS011;44634;54.110;12.138;2022-09-09T11:45:32;7.73;;;7.13;;
16480;SDS011;44634;54.110;12.138;2022-09-09T11:48:02;6.80;;;6.23;;
16480;SDS011;44634;54.110;12.138;2022-09-09T11:50:33;6.83;;;6.20;;
16480;SDS011;44634;54.110;12.138;2022-09-09T11:53:04;7.47;;;6.97;;
16480;SDS011;44634;54.110;12.138;2022-09-09T11:55:47;6.87;;;6.40;;
16480;SDS011;44634;54.110;12.138;2022-09-09T11:58:16;6.10;;;5.70;;
16480;SDS011;44634;54.110;12.138;2022-09-09T12:00:47;6.37;;;5.93;;
16480;SDS011;44634;54.110;12.138;2022-09-09T12:03:32;6.00;;;5.60;;
16480;SDS011;44634;54.110;12.138;2022-09-09T12:06:10;5.90;;;5.50;;
16480;SDS011;44634;54.110;12.138;2022-09-09T12:08:41;5.33;;;4.93;;
16480;SDS011;44634;54.110;12.138;2022-09-09T12:11:12;5.40;;;4.90;;
16480;SDS011;44634;54.110;12.138;2022-09-09T12:13:52;4.90;;;4.50;;
16480;SDS011;44634;54.110;12.138;2022-09-09T12:16:28;5.30;;;4.80;;
16480;SDS011;44634;54.110;12.138;2022-09-09T12:19:04;3.80;;;3.50;;
16480;SDS011;44634;54.110;12.138;2022-09-09T12:21:35;4.17;;;3.40;;
16480;SDS011;44634;54.110;12.138;2022-09-09T12:24:13;3.70;;;3.40;;
16480;SDS011;44634;54.110;12.138;2022-09-09T12:26:50;3.83;;;3.23;;
16480;SDS011;44634;54.110;12.138;2022-09-09T12:29:27;3.20;;;3.00;;
16480;SDS011;44634;54.110;12.138;2022-09-09T12:32:05;3.20;;;3.10;;
16480;SDS011;44634;54.110;12.138;2022-09-09T12:34:38;3.50;;;3.17;;
16480;SDS011;44634;54.110;12.138;2022-09-09T12:37:13;3.17;;;3.03;;
16480;SDS011;44634;54.110;12.138;2022-09-09T12:39:46;3.53;;;3.23;;
16480;SDS011;44634;54.110;12.138;2022-09-09T12:42:20;4.10;;;3.63;;
16480;SDS011;44634;54.110;12.138;2022-09-09T12:44:56;6.50;;;4.23;;
16480;SDS011;44634;54.110;12.138;2022-09-09T12:47:26;4.87;;;4.43;;
16480;SDS011;44634;54.110;12.138;2022-09-09T12:50:02;5.63;;;4.67;;
16480;SDS011;44634;54.110;12.138;2022-09-09T12:52:31;4.97;;;4.10;;
16480;SDS011;44634;54.110;12.138;2022-09-09T12:55:00;4.20;;;4.00;;
16480;SDS011;44634;54.110;12.138;2022-09-09T12:57:33;5.30;;;4.80;;
16480;SDS011;44634;54.110;12.138;2022-09-09T13:00:04;16.53;;;11.63;;
16480;SDS011;44634;54.110;12.138;2022-09-09T13:02:36;5.13;;;4.70;;
16480;SDS011;44634;54.110;12.138;2022-09-09T13:05:17;4.70;;;4.30;;
16480;SDS011;44634;54.110;12.138;2022-09-09T13:07:47;3.60;;;3.30;;
16480;SDS011;44634;54.110;12.138;2022-09-09T13:10:17;3.20;;;3.00;;
16480;SDS011;44634;54.110;12.138;2022-09-09T13:13:13;3.30;;;2.97;;
16480;SDS011;44634;54.110;12.138;2022-09-09T13:15:48;6.43;;;4.70;;
16480;SDS011;44634;54.110;12.138;2022-09-09T13:18:18;4.40;;;3.27;;
16480;SDS011;44634;54.110;12.138;2022-09-09T13:20:50;4.50;;;3.60;;
16480;SDS011;44634;54.110;12.138;2022-09-09T13:23:19;3.67;;;3.47;;
16480;SDS011;44634;54.110;12.138;2022-09-09T13:25:54;3.60;;;3.30;;
16480;SDS011;44634;54.110;12.138;2022-09-09T13:28:25;3.73;;;3.43;;
16480;SDS011;44634;54.110;12.138;2022-09-09T13:31:00;3.47;;;3.00;;
16480;SDS011;44634;54.110;12.138;2022-09-09T13:33:30;4.00;;;3.60;;
16480;SDS011;44634;54.110;12.138;2022-09-09T13:36:01;5.40;;;3.70;;
16480;SDS011;44634;54.110;12.138;2022-09-09T13:38:32;3.70;;;3.50;;
16480;SDS011;44634;54.110;12.138;2022-09-09T13:41:02;3.43;;;3.23;;
16480;SDS011;44634;54.110;12.138;2022-09-09T13:43:34;3.10;;;3.00;;
16480;SDS011;44634;54.110;12.138;2022-09-09T13:46:05;3.83;;;3.53;;
16480;SDS011;44634;54.110;12.138;2022-09-09T13:48:53;4.50;;;3.77;;
16480;SDS011;44634;54.110;12.138;2022-09-09T13:51:26;3.50;;;3.20;;
16480;SDS011;44634;54.110;12.138;2022-09-09T13:53:59;3.47;;;3.20;;
16480;SDS011;44634;54.110;12.138;2022-09-09T13:56:27;3.90;;;3.53;;
16480;SDS011;44634;54.110;12.138;2022-09-09T13:58:56;4.00;;;3.73;;
16480;SDS011;44634;54.110;12.138;2022-09-09T14:01:24;5.73;;;4.10;;
16480;SDS011;44634;54.110;12.138;2022-09-09T14:03:55;4.53;;;4.13;;
16480;SDS011;44634;54.110;12.138;2022-09-09T14:06:23;4.43;;;4.03;;
16480;SDS011;44634;54.110;12.138;2022-09-09T14:08:51;5.40;;;4.27;;
16480;SDS011;44634;54.110;12.138;2022-09-09T14:11:20;4.50;;;4.30;;
16480;SDS011;44634;54.110;12.138;2022-09-09T14:13:49;4.33;;;3.97;;
16480;SDS011;44634;54.110;12.138;2022-09-09T14:16:18;5.13;;;4.63;;
16480;SDS011;44634;54.110;12.138;2022-09-09T14:18:47;5.23;;;4.83;;
16480;SDS011;44634;54.110;12.138;2022-09-09T14:21:15;5.23;;;4.73;;
16480;SDS011;44634;54.110;12.138;2022-09-09T14:23:43;5.83;;;4.73;;
16480;SDS011;44634;54.110;12.138;2022-09-09T14:26:11;7.50;;;5.53;;
16480;SDS011;44634;54.110;12.138;2022-09-09T14:28:39;6.30;;;5.70;;
16480;SDS011;44634;54.110;12.138;2022-09-09T14:31:22;5.57;;;4.93;;
16480;SDS011;44634;54.110;12.138;2022-09-09T14:33:50;5.40;;;4.90;;
16480;SDS011;44634;54.110;12.138;2022-09-09T14:36:19;6.67;;;5.57;;
16480;SDS011;44634;54.110;12.138;2022-09-09T14:38:47;6.50;;;5.00;;
16480;SDS011;44634;54.110;12.138;2022-09-09T14:41:16;5.97;;;5.57;;
16480;SDS011;44634;54.110;12.138;2022-09-09T14:43:46;4.17;;;3.23;;
16480;SDS011;44634;54.110;12.138;2022-09-09T14:46:14;3.40;;;3.20;;
16480;SDS011;44634;54.110;12.138;2022-09-09T14:48:44;2.63;;;2.43;;
16480;SDS011;44634;54.110;12.138;2022-09-09T14:51:15;5.33;;;3.50;;